Архив погоды в Сытомино

Метеограмма Сытомино
Четверг, 20 Июня
Время местн. Темп Ветер Видим Явления Облачность нижн/средн/верх Атм. давл. Влжн Точка росы ВНГО R Сост. почвы Tg s
Напр Скр Прв ур.ст ур.м изм
20:00 +16.5° Ю-З 2 - 10 км - облачно 753 756 0 48% +5.6° 1 км 0 - - -
17:00 +18.3° Ю 3 - 10 км - облачно с прояснениями 753 756 +0.2 60% +10.5° 1 км - - - -
14:00 +19.6° Ю-З 2 - 10 км - переменная облачность 752 755 -0.6 43% +6.8° 1 км - - - -
11:00 +16.4° Ю 1 - 10 км - преимущественно облачно 753 756 +0.5 56% +7.7° 1 км - - - -
08:00 +15.3° Ю,Ю-З 1 - 10 км - облачно 753 756 0 62% +8.1° 1 км 0.5 - - -
05:00 +11.3° Ю,Ю-В 1 - 10 км небо без изменений {ливневые осадки} облачно 753 756 +0.2 80% +8° 1 км - - - -
02:00 +11.8° С,С-В 2 11 10 км слабый ливневый дождь облачно 752 755 +0.2 69% +6.3° 1 км - - - -
Среда, 19 Июня
Время местн. Темп Ветер Видим Явления Облачность нижн/средн/верх Атм. давл. Влжн Точка росы ВНГО R Сост. почвы Tg s
Напр Скр Прв ур.ст ур.м изм
23:00 +14° Ю-З 3 - 10 км - облачно 752 755 +0.4 57% +5.7° 1 км - - - -
20:00 +15.9° Ю-З 1 - 10 км - облачно 752 755 +0.5 41% +2.8° 1 км 0 - - -
17:00 +16.2° З,Ю-З 3 - 10 км - переменная облачность 751 754 +0.5 36% +1.1° 1 км - - - -
14:00 +14.5° З 3 - 10 км - облачно с прояснениями 751 754 +0.8 38% +0.3° 1 км - - - -
11:00 +13.6° З 3 - 10 км - облачно с прояснениями 750 753 +0.5 37% -0.7° 1 км - - - -
08:00 +11.7° З,С-З 3 - 10 км - переменная облачность 750 753 +0.3 54% +2.7° 1 км 0 - - -
05:00 +7.1° З,С-З 3 - 10 км - переменная облачность 749 752 +0.7 79% +3.8° 1 км - - - -
02:00 +7.6° З,С-З 2 - 10 км - облачно 749 752 +0.1 76% +3.6° 1 км - - - -
Вторник, 18 Июня
Время местн. Темп Ветер Видим Явления Облачность нижн/средн/верх Атм. давл. Влжн Точка росы ВНГО R Сост. почвы Tg s
Напр Скр Прв ур.ст ур.м изм
23:00 +10.3° З,С-З 2 - 10 км - облачно 749 752 0 63% +3.6° 1 км - - - -
20:00 +12.7° З,С-З 4 - 10 км - облачно 749 752 +0.7 54% +3.6° 1 км 1 - - -
17:00 +15° З 4 - 10 км небо без изменений {ливневые осадки} облачно 748 751 +0.2 58% +6.8° 1 км - - - -
14:00 +14.4° З 4 - 10 км ливневый дождь облачно 748 751 +0.4 63% +7.4° 1 км - - - -
11:00 +16.4° Ю-З 3 - 10 км небо без изменений {ливневые осадки} облачно 747 750 -0.6 51% +6.3° 1 км - - - -
08:00 +12.5° Ю,Ю-З 3 - 10 км ливневый дождь облачно 748 751 +0.2 67% +6.6° 1 км 0 Влажная (без луж) - -
05:00 +10.3° Ю 3 - 10 км - облачно с прояснениями 748 751 -0.2 70% +5.1° более 2.5 км - - - -
02:00 +10.3° Ю,Ю-З 2 - 10 км - облачно с прояснениями 748 751 -0.4 74% +5.8° 1 км - - - -
Понедельник, 17 Июня
Время местн. Темп Ветер Видим Явления Облачность нижн/средн/верх Атм. давл. Влжн Точка росы ВНГО R Сост. почвы Tg s
Напр Скр Прв ур.ст ур.м изм
23:00 +10.3° Ю,Ю-З 1 - 10 км - переменная облачность 748 751 -0.2 75% +6° 1 км - - - -
20:00 +13.1° Ю-З 2 - 10 км - переменная облачность 748 751 +0.4 52% +3.4° 1 км 0 - - -
17:00 +14° Ю-З 4 - 10 км - облачно с прояснениями 748 751 +0.2 47% +2.8° 1 км - - - -